createdAt,value
2017-12-01T00:01:11.382Z,19.55
2017-12-01T00:03:40.069Z,19.55
2017-12-01T00:06:09.357Z,19.57
2017-12-01T00:08:36.780Z,19.56
2017-12-01T00:11:03.633Z,19.58
2017-12-01T00:13:29.867Z,19.58
2017-12-01T00:15:56.081Z,19.63
2017-12-01T00:18:23.622Z,19.60
2017-12-01T00:20:49.882Z,19.56
2017-12-01T00:23:16.139Z,19.55
2017-12-01T00:25:42.482Z,19.58
2017-12-01T00:28:09.849Z,19.61
2017-12-01T00:30:36.204Z,19.59
2017-12-01T00:33:02.832Z,19.50
2017-12-01T00:35:29.103Z,19.42
2017-12-01T00:37:55.464Z,19.42
2017-12-01T00:40:21.708Z,19.46
2017-12-01T00:42:47.977Z,19.44
2017-12-01T00:45:16.210Z,19.46
2017-12-01T00:47:42.577Z,19.46
2017-12-01T00:50:10.255Z,19.52
2017-12-01T00:52:37.636Z,19.59
2017-12-01T00:55:05.184Z,19.56
2017-12-01T00:57:33.403Z,19.58
2017-12-01T00:59:59.927Z,19.59
2017-12-01T01:02:27.116Z,19.48
2017-12-01T01:04:55.273Z,19.53
2017-12-01T01:07:21.574Z,19.57
2017-12-01T01:09:47.860Z,19.55
2017-12-01T01:12:14.098Z,19.50
2017-12-01T01:14:40.314Z,19.55
2017-12-01T01:17:06.728Z,19.58
2017-12-01T01:19:32.943Z,19.64
2017-12-01T01:21:59.136Z,19.63
2017-12-01T01:24:25.384Z,19.58
2017-12-01T01:26:51.573Z,19.55
2017-12-01T01:29:17.731Z,19.53
2017-12-01T01:31:44.043Z,19.53
2017-12-01T01:34:10.211Z,19.50
2017-12-01T01:36:36.405Z,19.48
2017-12-01T01:39:02.866Z,19.48
2017-12-01T01:41:29.314Z,19.47
2017-12-01T01:43:55.535Z,19.45
2017-12-01T01:46:21.945Z,19.43
2017-12-01T01:48:48.176Z,19.40
2017-12-01T01:51:14.361Z,19.41
2017-12-01T01:53:40.618Z,19.42
2017-12-01T01:56:06.961Z,19.40
2017-12-01T01:58:33.179Z,19.39
2017-12-01T02:00:59.794Z,19.39
2017-12-01T02:03:25.972Z,19.39
2017-12-01T02:05:52.401Z,19.37
2017-12-01T02:08:18.902Z,19.38
2017-12-01T02:10:51.108Z,19.36
2017-12-01T02:13:17.345Z,19.36
2017-12-01T02:15:43.536Z,19.40
2017-12-01T02:18:09.748Z,19.41
2017-12-01T02:20:36.145Z,19.40
2017-12-01T02:23:02.392Z,19.40
2017-12-01T02:25:28.634Z,19.42
2017-12-01T02:27:55.145Z,19.39
2017-12-01T02:30:21.346Z,19.36
2017-12-01T02:32:47.554Z,19.35
2017-12-01T02:35:13.819Z,19.36
2017-12-01T02:37:40.067Z,19.32
2017-12-01T02:40:06.264Z,19.36
2017-12-01T02:42:32.542Z,19.40
2017-12-01T02:44:58.846Z,19.42
2017-12-01T02:47:25.048Z,19.39
2017-12-01T02:49:51.317Z,19.37
2017-12-01T02:52:17.656Z,19.38
2017-12-01T02:54:49.010Z,19.37
2017-12-01T02:57:15.203Z,19.38
2017-12-01T02:59:41.571Z,19.38
2017-12-01T03:02:08.068Z,19.40
2017-12-01T03:04:34.288Z,19.42
2017-12-01T03:07:00.661Z,19.43
2017-12-01T03:09:27.096Z,19.41
2017-12-01T03:11:53.309Z,19.43
2017-12-01T03:14:22.301Z,19.42
2017-12-01T03:16:48.564Z,19.42
2017-12-01T03:19:14.782Z,19.42
2017-12-01T03:21:41.112Z,19.46
2017-12-01T03:24:07.401Z,19.48
2017-12-01T03:26:33.695Z,19.45
2017-12-01T03:28:59.974Z,19.43
2017-12-01T03:31:26.187Z,19.42
2017-12-01T03:33:52.413Z,19.45
2017-12-01T03:36:18.757Z,19.45
2017-12-01T03:38:45.222Z,19.43
2017-12-01T03:41:11.417Z,19.44
2017-12-01T03:43:37.681Z,19.41
2017-12-01T03:46:03.994Z,19.42
2017-12-01T03:48:30.431Z,19.39
2017-12-01T03:50:56.683Z,19.37
2017-12-01T03:53:22.905Z,19.40
2017-12-01T03:55:49.119Z,19.40
2017-12-01T03:58:15.364Z,19.38
2017-12-01T04:00:41.559Z,19.35
2017-12-01T04:03:07.813Z,19.37
2017-12-01T04:05:34.077Z,19.35
2017-12-01T04:08:00.302Z,19.36
2017-12-01T04:10:26.496Z,19.37
2017-12-01T04:12:52.862Z,19.38
2017-12-01T04:15:19.065Z,19.36
2017-12-01T04:17:45.267Z,19.37
2017-12-01T04:20:11.768Z,19.36
2017-12-01T04:22:37.991Z,19.35
2017-12-01T04:25:04.201Z,19.36
2017-12-01T04:27:30.526Z,19.36
2017-12-01T04:29:56.737Z,19.37
2017-12-01T04:32:22.945Z,19.36
2017-12-01T04:34:49.195Z,19.34
2017-12-01T04:37:15.391Z,19.36
2017-12-01T04:39:41.591Z,19.37
2017-12-01T04:42:07.840Z,19.34
2017-12-01T04:44:34.301Z,19.35
2017-12-01T04:47:00.520Z,19.36
2017-12-01T04:49:26.795Z,19.34
2017-12-01T04:51:53.244Z,19.33
2017-12-01T04:54:19.439Z,19.35
2017-12-01T04:56:45.945Z,19.32
2017-12-01T04:59:12.165Z,19.32
2017-12-01T05:01:38.610Z,19.31
2017-12-01T05:04:10.796Z,19.29
2017-12-01T05:06:37.244Z,19.28
2017-12-01T05:11:35.551Z,19.30
2017-12-01T05:14:01.752Z,19.35
2017-12-01T05:16:27.942Z,19.36
2017-12-01T05:18:54.269Z,19.39
2017-12-01T05:21:20.496Z,19.39
2017-12-01T05:23:46.704Z,19.43
2017-12-01T05:26:13.065Z,19.43
2017-12-01T05:28:39.264Z,19.43
2017-12-01T05:31:05.491Z,19.42
2017-12-01T05:33:31.855Z,19.40
2017-12-01T05:35:58.052Z,19.37
2017-12-01T05:38:24.504Z,19.34
2017-12-01T05:40:50.771Z,19.29
2017-12-01T05:43:16.980Z,19.30
2017-12-01T05:45:43.219Z,19.30
2017-12-01T05:48:09.461Z,19.31
2017-12-01T05:50:35.908Z,19.29
2017-12-01T05:53:02.126Z,19.30
2017-12-01T05:55:28.481Z,19.31
2017-12-01T05:57:54.946Z,19.31
2017-12-01T06:00:21.190Z,19.28
2017-12-01T06:02:47.966Z,19.26
2017-12-01T06:05:17.324Z,19.26
2017-12-01T06:07:45.254Z,19.26
2017-12-01T06:10:13.759Z,19.24
2017-12-01T06:12:40.102Z,19.21
2017-12-01T06:15:06.540Z,19.19
2017-12-01T06:17:32.898Z,19.19
2017-12-01T06:19:59.105Z,19.19
2017-12-01T06:22:25.334Z,19.14
2017-12-01T06:24:51.689Z,19.11
2017-12-01T06:27:17.912Z,19.10
2017-12-01T06:29:44.104Z,19.09
2017-12-01T06:32:10.514Z,19.08
2017-12-01T06:34:36.735Z,19.06
2017-12-01T06:37:03.091Z,19.05
2017-12-01T06:39:29.423Z,19.02
2017-12-01T06:41:55.940Z,19.01
2017-12-01T06:44:22.184Z,19.03
2017-12-01T06:46:48.651Z,19.03
2017-12-01T06:49:15.079Z,19.03
2017-12-01T06:51:41.300Z,19.09
2017-12-01T06:54:07.582Z,19.12
2017-12-01T06:56:33.889Z,19.10
2017-12-01T06:59:00.380Z,19.09
2017-12-01T07:03:59.573Z,19.19
2017-12-01T07:06:26.054Z,19.22
2017-12-01T07:08:52.248Z,19.24
2017-12-01T07:11:18.423Z,19.28
2017-12-01T07:13:44.672Z,19.25
2017-12-01T07:16:10.865Z,19.26
2017-12-01T07:18:37.301Z,19.26
2017-12-01T07:21:03.634Z,19.21
2017-12-01T07:23:29.843Z,19.16
2017-12-01T07:25:56.108Z,19.18
2017-12-01T07:28:22.666Z,19.13
2017-12-01T07:30:48.873Z,19.15
2017-12-01T07:33:15.105Z,19.10
2017-12-01T07:35:41.438Z,19.13
2017-12-01T07:38:07.675Z,19.13
2017-12-01T07:40:34.254Z,19.12
2017-12-01T07:43:00.527Z,19.11
2017-12-01T07:45:28.680Z,19.13
2017-12-01T07:47:54.924Z,19.11
2017-12-01T07:50:21.532Z,19.10
2017-12-01T07:52:47.890Z,19.13
2017-12-01T07:55:14.198Z,19.09
2017-12-01T07:57:40.496Z,19.08
2017-12-01T08:00:06.733Z,19.11
2017-12-01T08:02:33.081Z,19.08
2017-12-01T08:04:59.440Z,19.09
2017-12-01T08:07:25.904Z,19.10
2017-12-01T08:09:52.137Z,19.11
2017-12-01T08:12:18.426Z,19.10
2017-12-01T08:14:44.753Z,19.09
2017-12-01T08:17:23.471Z,19.08
2017-12-01T08:19:49.712Z,19.05
2017-12-01T08:22:28.504Z,19.03
2017-12-01T08:25:07.376Z,19.05
2017-12-01T08:27:33.639Z,19.07
2017-12-01T08:29:59.916Z,19.06
2017-12-01T08:32:26.397Z,19.08
2017-12-01T08:34:52.951Z,19.09
2017-12-01T08:37:19.167Z,19.06
2017-12-01T08:39:45.447Z,19.09
2017-12-01T08:42:11.954Z,19.09
2017-12-01T08:44:38.141Z,19.11
2017-12-01T08:47:04.386Z,19.10
2017-12-01T08:49:30.725Z,19.12
2017-12-01T08:51:57.168Z,19.11
2017-12-01T08:54:23.380Z,19.13
2017-12-01T08:56:49.607Z,19.11
2017-12-01T08:59:15.837Z,19.11
2017-12-01T09:01:42.086Z,19.08
2017-12-01T09:04:08.319Z,19.06
2017-12-01T09:06:34.516Z,19.12
2017-12-01T09:09:00.967Z,19.15
2017-12-01T09:11:27.216Z,19.17
2017-12-01T09:13:53.452Z,19.15
2017-12-01T09:16:19.892Z,19.13
2017-12-01T09:18:46.143Z,19.16
2017-12-01T09:21:12.551Z,19.13
2017-12-01T09:23:39.150Z,19.10
2017-12-01T09:26:05.647Z,19.14
2017-12-01T09:28:32.118Z,19.18
2017-12-01T09:30:58.300Z,19.18
2017-12-01T09:33:24.579Z,19.17
2017-12-01T09:35:50.752Z,19.19
2017-12-01T09:38:16.932Z,19.13
2017-12-01T09:40:43.421Z,19.14
2017-12-01T09:43:09.641Z,19.15
2017-12-01T09:45:36.184Z,19.15
2017-12-01T09:48:02.432Z,19.21
2017-12-01T09:50:28.613Z,19.21
2017-12-01T09:52:54.872Z,19.23
2017-12-01T09:55:22.560Z,19.20
2017-12-01T09:57:48.855Z,19.22
2017-12-01T10:00:15.066Z,19.24
2017-12-01T10:02:41.321Z,19.22
2017-12-01T10:05:07.509Z,19.22
2017-12-01T10:07:33.945Z,19.24
2017-12-01T10:10:00.261Z,19.27
2017-12-01T10:12:26.449Z,19.25
2017-12-01T10:14:53.436Z,19.26
2017-12-01T10:17:19.784Z,19.23
2017-12-01T10:19:45.977Z,19.22
2017-12-01T10:22:12.205Z,19.21
2017-12-01T10:24:38.568Z,19.21
2017-12-01T10:27:04.764Z,19.22
2017-12-01T10:29:30.944Z,19.23
2017-12-01T10:31:57.183Z,19.26
2017-12-01T10:34:23.377Z,19.31
2017-12-01T10:36:49.556Z,19.32
2017-12-01T10:39:15.808Z,19.32
2017-12-01T10:41:42.000Z,19.31
2017-12-01T10:44:08.221Z,19.33
2017-12-01T10:46:34.504Z,19.38
2017-12-01T10:49:00.927Z,19.43
2017-12-01T10:51:27.116Z,19.46
2017-12-01T10:53:53.443Z,19.41
2017-12-01T10:56:19.647Z,19.37
2017-12-01T10:58:45.840Z,19.38
2017-12-01T11:01:12.166Z,19.34
2017-12-01T11:03:38.509Z,19.32
2017-12-01T11:06:04.688Z,19.32
2017-12-01T11:08:30.987Z,19.32
2017-12-01T11:10:57.167Z,19.34
2017-12-01T11:13:23.336Z,19.34
2017-12-01T11:15:49.950Z,19.31
2017-12-01T11:18:16.254Z,19.34
2017-12-01T11:20:42.456Z,19.35
2017-12-01T11:23:08.743Z,19.35
2017-12-01T11:25:35.093Z,19.38
2017-12-01T11:28:01.292Z,19.38
2017-12-01T11:30:27.556Z,19.40
2017-12-01T11:32:53.743Z,19.46
2017-12-01T11:35:20.188Z,19.43
2017-12-01T11:37:46.503Z,19.42
2017-12-01T11:40:12.973Z,19.39
2017-12-01T11:42:39.126Z,19.38
2017-12-01T11:45:05.398Z,19.40
2017-12-01T11:47:31.669Z,19.41
2017-12-01T11:49:57.860Z,19.41
2017-12-01T11:52:24.108Z,19.50
2017-12-01T11:54:50.301Z,19.46
2017-12-01T11:57:16.504Z,19.41
2017-12-01T11:59:43.071Z,19.39
2017-12-01T12:02:09.247Z,19.37
2017-12-01T12:04:35.466Z,19.35
2017-12-01T12:07:01.782Z,19.34
2017-12-01T12:09:27.993Z,19.37
2017-12-01T12:11:54.426Z,19.35
2017-12-01T12:14:20.673Z,19.31
2017-12-01T12:16:47.106Z,19.31
2017-12-01T12:19:13.294Z,19.31
2017-12-01T12:21:39.614Z,19.24
2017-12-01T12:24:05.831Z,19.26
2017-12-01T12:26:32.058Z,19.29
2017-12-01T12:28:58.540Z,19.26
2017-12-01T12:31:24.783Z,19.24
2017-12-01T12:33:51.018Z,19.26
2017-12-01T12:36:17.339Z,19.23
2017-12-01T12:38:43.545Z,19.26
2017-12-01T12:41:10.078Z,19.24
2017-12-01T12:43:36.414Z,19.28
2017-12-01T12:46:02.823Z,19.29
2017-12-01T12:48:29.252Z,19.27
2017-12-01T12:50:55.834Z,19.24
2017-12-01T12:53:22.075Z,19.27
2017-12-01T12:55:48.256Z,19.27
2017-12-01T12:58:14.552Z,19.25
2017-12-01T13:00:40.911Z,19.28
2017-12-01T13:03:07.156Z,19.26
2017-12-01T13:05:33.495Z,19.37
2017-12-01T13:07:59.717Z,19.37
2017-12-01T13:10:25.955Z,19.34
2017-12-01T13:12:52.258Z,19.36
2017-12-01T13:15:18.524Z,19.32
2017-12-01T13:17:44.788Z,19.30
2017-12-01T13:20:11.171Z,19.30
2017-12-01T13:22:37.396Z,19.29
2017-12-01T13:25:03.616Z,19.31
2017-12-01T13:27:29.865Z,19.32
2017-12-01T13:29:56.064Z,19.31
2017-12-01T13:32:22.352Z,19.29
2017-12-01T13:34:48.723Z,19.30
2017-12-01T13:37:14.961Z,19.30
2017-12-01T13:39:41.150Z,19.28
2017-12-01T13:42:07.499Z,19.30
2017-12-01T13:44:33.681Z,19.29
2017-12-01T13:47:00.242Z,19.33
2017-12-01T13:49:32.661Z,19.33
2017-12-01T13:51:58.853Z,19.31
2017-12-01T13:54:25.036Z,19.28
2017-12-01T13:56:51.363Z,19.28
2017-12-01T13:59:17.577Z,19.29
2017-12-01T14:01:43.756Z,19.30
2017-12-01T14:04:10.014Z,19.28
2017-12-01T14:06:36.435Z,19.30
2017-12-01T14:09:02.728Z,19.30
2017-12-01T14:11:28.969Z,19.29
2017-12-01T14:13:55.220Z,19.30
2017-12-01T14:16:21.480Z,19.28
2017-12-01T14:18:47.736Z,19.28
2017-12-01T14:21:13.935Z,19.29
2017-12-01T14:23:40.134Z,19.31
2017-12-01T14:26:06.543Z,19.32
2017-12-01T14:28:32.725Z,19.32
2017-12-01T14:30:58.918Z,19.26
2017-12-01T14:33:25.182Z,19.28
2017-12-01T14:35:51.409Z,19.27
2017-12-01T14:38:17.596Z,19.27
2017-12-01T14:40:43.846Z,19.30
2017-12-01T14:43:10.101Z,19.27
2017-12-01T14:45:36.279Z,19.27
2017-12-01T14:48:02.772Z,19.25
2017-12-01T14:50:28.945Z,19.23
2017-12-01T14:52:55.135Z,19.27
2017-12-01T14:55:21.381Z,19.25
2017-12-01T14:57:47.873Z,19.27
2017-12-01T15:00:14.094Z,19.24
2017-12-01T15:02:40.442Z,19.25
2017-12-01T15:05:06.627Z,19.24
2017-12-01T15:07:32.832Z,19.27
2017-12-01T15:09:59.155Z,19.26
2017-12-01T15:12:25.341Z,19.23
2017-12-01T15:14:51.528Z,19.27
2017-12-01T15:17:18.007Z,19.30
2017-12-01T15:19:44.193Z,19.32
2017-12-01T15:22:11.308Z,19.31
2017-12-01T15:24:37.560Z,19.33
2017-12-01T15:27:03.753Z,19.34
2017-12-01T15:29:29.937Z,19.33
2017-12-01T15:31:56.404Z,19.31
2017-12-01T15:34:23.240Z,19.30
2017-12-01T15:36:49.413Z,19.30
2017-12-01T15:39:15.665Z,19.28
2017-12-01T15:41:41.923Z,19.25
2017-12-01T15:44:08.122Z,19.26
2017-12-01T15:46:34.450Z,19.26
2017-12-01T15:49:00.631Z,19.23
2017-12-01T15:51:26.821Z,19.22
2017-12-01T15:53:53.167Z,19.25
2017-12-01T15:56:19.391Z,19.25
2017-12-01T15:58:45.567Z,19.22
2017-12-01T16:01:11.813Z,19.26
2017-12-01T16:03:38.813Z,19.24
2017-12-01T16:06:05.049Z,19.27
2017-12-01T16:08:31.290Z,19.24
2017-12-01T16:10:57.635Z,19.26
2017-12-01T16:13:24.062Z,19.26
2017-12-01T16:15:50.515Z,19.25
2017-12-01T16:18:16.869Z,19.24
2017-12-01T16:20:43.088Z,19.23
2017-12-01T16:23:09.360Z,19.22
2017-12-01T16:25:35.617Z,19.18
2017-12-01T16:28:01.820Z,19.20
2017-12-01T16:30:28.056Z,19.18
2017-12-01T16:33:00.226Z,19.19
2017-12-01T16:35:20.560Z,19.20
2017-12-01T16:37:46.838Z,19.24
2017-12-01T16:40:13.393Z,19.25
2017-12-01T16:42:39.579Z,19.25
2017-12-01T16:45:05.764Z,19.28
2017-12-01T16:47:32.010Z,19.29
2017-12-01T16:49:58.208Z,19.29
2017-12-01T16:52:24.400Z,19.29
2017-12-01T16:54:50.961Z,19.28
2017-12-01T16:57:17.164Z,19.30
2017-12-01T16:59:43.361Z,19.32
2017-12-01T17:02:09.601Z,19.32
2017-12-01T17:04:35.952Z,19.32
2017-12-01T17:07:02.231Z,19.33
2017-12-01T17:09:28.459Z,19.31
2017-12-01T17:11:56.020Z,19.31
2017-12-01T17:14:22.223Z,19.31
2017-12-01T17:16:48.437Z,19.30
2017-12-01T17:19:14.774Z,19.30
2017-12-01T17:21:40.985Z,19.31
2017-12-01T17:24:07.165Z,19.27
2017-12-01T17:26:33.501Z,19.31
2017-12-01T17:28:59.951Z,19.31
2017-12-01T17:31:26.141Z,19.30
2017-12-01T17:33:52.642Z,19.31
2017-12-01T17:36:18.889Z,19.30
2017-12-01T17:38:45.091Z,19.31
2017-12-01T17:41:11.437Z,19.32
2017-12-01T17:43:37.635Z,19.30
2017-12-01T17:46:04.083Z,19.28
2017-12-01T17:48:30.356Z,19.27
2017-12-01T17:50:56.569Z,19.29
2017-12-01T17:53:22.770Z,19.27
2017-12-01T17:55:49.017Z,19.30
2017-12-01T17:58:15.301Z,19.28
2017-12-01T18:00:41.522Z,19.30
2017-12-01T18:03:07.776Z,19.29
2017-12-01T18:05:33.967Z,19.30
2017-12-01T18:08:00.164Z,19.28
2017-12-01T18:10:26.406Z,19.29
2017-12-01T18:12:52.606Z,19.28
2017-12-01T18:15:18.787Z,19.26
2017-12-01T18:17:45.101Z,19.26
2017-12-01T18:20:11.301Z,19.28
2017-12-01T18:22:37.709Z,19.30
2017-12-01T18:25:03.964Z,19.28
2017-12-01T18:27:30.161Z,19.30
2017-12-01T18:29:56.343Z,19.32
2017-12-01T18:32:22.590Z,19.34
2017-12-01T18:34:48.830Z,19.33
2017-12-01T18:37:15.200Z,19.34
2017-12-01T18:39:41.568Z,19.32
2017-12-01T18:42:07.845Z,19.30
2017-12-01T18:44:34.103Z,19.27
2017-12-01T18:47:00.473Z,19.28
2017-12-01T18:49:26.717Z,19.30
2017-12-01T18:51:52.956Z,19.30
2017-12-01T18:54:19.346Z,19.32
2017-12-01T18:56:45.823Z,19.27
2017-12-01T18:59:12.046Z,19.29
2017-12-01T19:01:38.432Z,19.31
2017-12-01T19:04:04.678Z,19.30
2017-12-01T19:06:31.017Z,19.27
2017-12-01T19:08:57.266Z,19.28
2017-12-01T19:11:23.461Z,19.28
2017-12-01T19:13:49.645Z,19.28
2017-12-01T19:16:15.896Z,19.27
2017-12-01T19:18:42.114Z,19.31
2017-12-01T19:21:08.353Z,19.30
2017-12-01T19:23:34.594Z,19.33
2017-12-01T19:26:00.851Z,19.34
2017-12-01T19:28:27.039Z,19.34
2017-12-01T19:30:53.272Z,19.32
2017-12-01T19:33:19.481Z,19.34
2017-12-01T19:35:45.663Z,19.33
2017-12-01T19:38:11.902Z,19.34
2017-12-01T19:40:38.093Z,19.34
2017-12-01T19:43:04.510Z,19.33
2017-12-01T19:45:30.843Z,19.28
2017-12-01T19:47:57.073Z,19.28
2017-12-01T19:50:23.274Z,19.28
2017-12-01T19:52:49.591Z,19.26
2017-12-01T19:55:15.791Z,19.28
2017-12-01T19:57:42.224Z,19.27
2017-12-01T20:00:08.560Z,19.28
2017-12-01T20:02:34.774Z,19.26
2017-12-01T20:05:00.965Z,19.21
2017-12-01T20:07:27.216Z,19.23
2017-12-01T20:09:53.416Z,19.29
2017-12-01T20:12:19.623Z,19.29
2017-12-01T20:14:45.881Z,19.28
2017-12-01T20:17:12.073Z,19.27
2017-12-01T20:19:38.496Z,19.25
2017-12-01T20:22:04.730Z,19.22
2017-12-01T20:24:31.164Z,19.25
2017-12-01T20:26:57.598Z,19.24
2017-12-01T20:29:23.938Z,19.22
2017-12-01T20:31:50.145Z,19.25
2017-12-01T20:34:16.395Z,19.27
2017-12-01T20:36:42.612Z,19.25
2017-12-01T20:39:08.841Z,19.25
2017-12-01T20:41:35.027Z,19.24
2017-12-01T20:44:01.589Z,19.26
2017-12-01T20:46:27.781Z,19.27
2017-12-01T20:48:53.986Z,19.26
2017-12-01T20:51:20.238Z,19.29
2017-12-01T20:53:46.439Z,19.30
2017-12-01T20:56:12.641Z,19.30
2017-12-01T20:58:39.064Z,19.29
2017-12-01T21:01:05.259Z,19.27
2017-12-01T21:03:31.454Z,19.29
2017-12-01T21:05:57.794Z,19.28
2017-12-01T21:08:24.277Z,19.28
2017-12-01T21:10:50.469Z,19.30
2017-12-01T21:13:17.054Z,19.28
2017-12-01T21:15:43.255Z,19.27
2017-12-01T21:18:09.467Z,19.24
2017-12-01T21:20:35.784Z,19.20
2017-12-01T21:23:01.972Z,19.24
2017-12-01T21:25:28.181Z,19.24
2017-12-01T21:27:54.522Z,19.26
2017-12-01T21:30:20.964Z,19.24
2017-12-01T21:32:47.177Z,19.24
2017-12-01T21:35:13.488Z,19.27
2017-12-01T21:37:39.827Z,19.26
2017-12-01T21:40:06.065Z,19.30
2017-12-01T21:45:04.190Z,19.35
2017-12-01T21:47:30.657Z,19.35
2017-12-01T21:49:57.208Z,19.31
2017-12-01T21:52:23.397Z,19.32
2017-12-01T21:54:49.597Z,19.33
2017-12-01T21:57:16.127Z,19.32
2017-12-01T21:59:42.298Z,19.26
2017-12-01T22:02:08.489Z,19.28
2017-12-01T22:04:34.836Z,19.23
2017-12-01T22:07:01.060Z,19.19
2017-12-01T22:09:27.261Z,19.26
2017-12-01T22:11:53.587Z,19.30
2017-12-01T22:14:19.814Z,19.30
2017-12-01T22:16:46.041Z,19.30
2017-12-01T22:19:12.274Z,19.30
2017-12-01T22:21:38.516Z,19.25
2017-12-01T22:24:04.707Z,19.26
2017-12-01T22:26:31.016Z,19.26
2017-12-01T22:28:57.243Z,19.26
2017-12-01T22:31:23.674Z,19.29
2017-12-01T22:33:50.004Z,19.28
2017-12-01T22:36:16.210Z,19.31
2017-12-01T22:38:42.405Z,19.27
2017-12-01T22:41:08.998Z,19.25
2017-12-01T22:43:35.295Z,19.25
2017-12-01T22:46:01.488Z,19.29
2017-12-01T22:48:28.040Z,19.25
2017-12-01T22:50:54.224Z,19.21
2017-12-01T22:53:20.449Z,19.20
2017-12-01T22:55:46.684Z,19.20
2017-12-01T22:58:13.112Z,19.18
2017-12-01T23:00:39.297Z,19.19
2017-12-01T23:03:05.538Z,19.20
2017-12-01T23:05:31.717Z,19.19
2017-12-01T23:07:57.908Z,19.19
2017-12-01T23:10:24.472Z,19.20
2017-12-01T23:12:50.694Z,19.21
2017-12-01T23:15:16.873Z,19.21
2017-12-01T23:17:43.320Z,19.27
2017-12-01T23:20:09.500Z,19.28
2017-12-01T23:22:36.133Z,19.26
2017-12-01T23:25:02.452Z,19.27
2017-12-01T23:27:28.630Z,19.27
2017-12-01T23:29:55.044Z,19.27
2017-12-01T23:32:21.290Z,19.27
2017-12-01T23:34:47.474Z,19.30
2017-12-01T23:37:13.655Z,19.29
2017-12-01T23:39:40.114Z,19.28
2017-12-01T23:42:06.319Z,19.30
2017-12-01T23:44:32.522Z,19.29
2017-12-01T23:46:58.832Z,19.27
2017-12-01T23:49:25.003Z,19.25
2017-12-01T23:51:51.191Z,19.24
2017-12-01T23:54:17.660Z,19.26
2017-12-01T23:56:43.878Z,19.30
2017-12-01T23:59:10.399Z,19.25
